createdAt,value
2017-12-28T00:00:56.169Z,926.07
2017-12-28T00:01:56.153Z,926.03
2017-12-28T00:02:56.123Z,926.05
2017-12-28T00:03:56.108Z,926.07
2017-12-28T00:04:56.103Z,926.09
2017-12-28T00:05:56.086Z,926.02
2017-12-28T00:06:56.088Z,926.04
2017-12-28T00:07:56.045Z,926
2017-12-28T00:08:56.038Z,926.02
2017-12-28T00:09:56.008Z,926.01
2017-12-28T00:10:55.992Z,926
2017-12-28T00:11:55.986Z,925.96
2017-12-28T00:12:55.959Z,925.96
2017-12-28T00:13:55.954Z,925.98
2017-12-28T00:14:55.925Z,925.96
2017-12-28T00:15:55.909Z,925.99
2017-12-28T00:16:55.907Z,925.97
2017-12-28T00:17:55.886Z,925.97
2017-12-28T00:18:55.908Z,926
2017-12-28T00:19:55.854Z,926.01
2017-12-28T00:20:55.824Z,926.01
2017-12-28T00:21:55.809Z,926.01
2017-12-28T00:22:55.807Z,926.01
2017-12-28T00:23:55.788Z,926.05
2017-12-28T00:24:55.771Z,926.02
2017-12-28T00:25:55.743Z,926.01
2017-12-28T00:26:55.727Z,926.04
2017-12-28T00:27:55.709Z,926.09
2017-12-28T00:28:55.693Z,926.05
2017-12-28T00:29:55.688Z,926.1
2017-12-28T00:30:55.672Z,926.08
2017-12-28T00:31:55.644Z,926.08
2017-12-28T00:32:55.639Z,926.01
2017-12-28T00:33:55.622Z,926.03
2017-12-28T00:34:55.596Z,926.07
2017-12-28T00:35:55.609Z,926.06
2017-12-28T00:36:55.559Z,926.07
2017-12-28T00:37:55.554Z,926.08
2017-12-28T00:38:55.527Z,926.06
2017-12-28T00:39:55.509Z,926.06
2017-12-28T00:40:55.492Z,926.1
2017-12-28T00:41:55.479Z,926.09
2017-12-28T00:42:55.460Z,926.09
2017-12-28T00:43:55.443Z,926.11
2017-12-28T00:44:55.426Z,926.08
2017-12-28T00:45:55.409Z,926.09
2017-12-28T00:46:55.407Z,926.08
2017-12-28T00:47:55.375Z,926.09
2017-12-28T00:48:55.381Z,926.11
2017-12-28T00:49:55.343Z,926.12
2017-12-28T00:50:55.325Z,926.11
2017-12-28T00:51:55.358Z,926.11
2017-12-28T00:52:55.301Z,926.13
2017-12-28T00:53:55.299Z,926.2
2017-12-28T00:54:55.260Z,926.19
2017-12-28T00:55:55.268Z,926.2
2017-12-28T00:56:55.226Z,926.16
2017-12-28T00:57:55.219Z,926.17
2017-12-28T00:58:55.193Z,926.21
2017-12-28T00:59:55.177Z,926.2
2017-12-28T01:00:55.160Z,926.24
2017-12-28T01:01:55.143Z,926.24
2017-12-28T01:02:55.126Z,926.25
2017-12-28T01:03:55.111Z,926.27
2017-12-28T01:04:55.093Z,926.24
2017-12-28T01:05:55.151Z,926.28
2017-12-28T01:06:55.088Z,926.26
2017-12-28T01:07:55.045Z,926.15
2017-12-28T01:08:55.052Z,926.16
2017-12-28T01:09:55.011Z,926.17
2017-12-28T01:10:54.993Z,926.18
2017-12-28T01:11:54.977Z,926.14
2017-12-28T01:12:54.974Z,926.06
2017-12-28T01:13:54.953Z,926.05
2017-12-28T01:14:54.931Z,926.04
2017-12-28T01:15:54.912Z,926.07
2017-12-28T01:16:54.904Z,926.07
2017-12-28T01:17:54.877Z,926.05
2017-12-28T01:18:54.862Z,926.07
2017-12-28T01:19:54.845Z,926.04
2017-12-28T01:20:54.830Z,926.07
2017-12-28T01:21:54.815Z,926.08
2017-12-28T01:22:54.799Z,926.11
2017-12-28T01:23:54.780Z,926.13
2017-12-28T01:24:54.786Z,926.16
2017-12-28T01:25:54.749Z,926.17
2017-12-28T01:26:54.730Z,926.18
2017-12-28T01:27:54.759Z,926.18
2017-12-28T01:28:54.698Z,926.2
2017-12-28T01:29:54.700Z,926.16
2017-12-28T01:30:54.664Z,926.13
2017-12-28T01:31:54.648Z,926.15
2017-12-28T01:32:54.758Z,926.19
2017-12-28T01:33:54.622Z,926.23
2017-12-28T01:34:54.596Z,926.29
2017-12-28T01:35:54.607Z,926.37
2017-12-28T01:36:54.563Z,926.38
2017-12-28T01:37:54.605Z,926.41
2017-12-28T01:38:54.532Z,926.45
2017-12-28T01:39:54.515Z,926.49
2017-12-28T01:40:54.550Z,926.46
2017-12-28T01:41:54.480Z,926.44
2017-12-28T01:42:54.467Z,926.41
2017-12-28T01:43:54.449Z,926.37
2017-12-28T01:44:54.432Z,926.35
2017-12-28T01:45:54.447Z,926.33
2017-12-28T01:46:54.399Z,926.36
2017-12-28T01:47:54.382Z,926.35
2017-12-28T01:48:54.381Z,926.31
2017-12-28T01:49:54.371Z,926.33
2017-12-28T01:50:54.334Z,926.28
2017-12-28T01:51:54.344Z,926.24
2017-12-28T01:52:54.300Z,926.23
2017-12-28T01:53:54.284Z,926.23
2017-12-28T01:54:54.269Z,926.25
2017-12-28T01:55:54.251Z,926.26
2017-12-28T01:56:54.257Z,926.23
2017-12-28T01:57:54.218Z,926.19
2017-12-28T01:58:54.200Z,926.23
2017-12-28T01:59:54.184Z,926.24
2017-12-28T02:00:54.171Z,926.22
2017-12-28T02:01:54.152Z,926.24
2017-12-28T02:02:54.135Z,926.21
2017-12-28T02:03:54.133Z,926.22
2017-12-28T02:04:54.107Z,926.23
2017-12-28T02:05:54.112Z,926.22
2017-12-28T02:06:54.070Z,926.2
2017-12-28T02:07:54.183Z,926.24
2017-12-28T02:08:54.056Z,926.26
2017-12-28T02:09:54.018Z,926.18
2017-12-28T02:10:54.003Z,926.21
2017-12-28T02:11:53.985Z,926.19
2017-12-28T02:12:53.986Z,926.23
2017-12-28T02:13:53.952Z,926.24
2017-12-28T02:14:53.956Z,926.23
2017-12-28T02:15:53.925Z,926.24
2017-12-28T02:16:53.902Z,926.24
2017-12-28T02:17:53.944Z,926.25
2017-12-28T02:18:53.870Z,926.25
2017-12-28T02:19:53.873Z,926.28
2017-12-28T02:20:53.838Z,926.29
2017-12-28T02:21:53.821Z,926.29
2017-12-28T02:22:53.804Z,926.34
2017-12-28T02:23:53.787Z,926.34
2017-12-28T02:24:53.771Z,926.37
2017-12-28T02:25:53.754Z,926.31
2017-12-28T02:26:53.737Z,926.31
2017-12-28T02:27:53.722Z,926.35
2017-12-28T02:28:53.762Z,926.32
2017-12-28T02:29:53.691Z,926.39
2017-12-28T02:30:53.682Z,926.41
2017-12-28T02:31:53.670Z,926.39
2017-12-28T02:32:53.732Z,926.41
2017-12-28T02:33:53.622Z,926.38
2017-12-28T02:34:53.672Z,926.39
2017-12-28T02:35:53.604Z,926.35
2017-12-28T02:36:53.572Z,926.38
2017-12-28T02:37:53.604Z,926.38
2017-12-28T02:38:53.540Z,926.34
2017-12-28T02:39:53.552Z,926.37
2017-12-28T02:40:53.505Z,926.34
2017-12-28T02:41:53.488Z,926.28
2017-12-28T02:42:53.473Z,926.26
2017-12-28T02:43:53.456Z,926.29
2017-12-28T02:44:53.439Z,926.31
2017-12-28T02:45:53.422Z,926.28
2017-12-28T02:46:53.405Z,926.3
2017-12-28T02:47:53.388Z,926.27
2017-12-28T02:48:53.372Z,926.25
2017-12-28T02:49:53.356Z,926.23
2017-12-28T02:50:53.341Z,926.21
2017-12-28T02:51:53.322Z,926.21
2017-12-28T02:52:53.334Z,926.2
2017-12-28T02:53:53.290Z,926.23
2017-12-28T02:54:53.314Z,926.17
2017-12-28T02:55:53.286Z,926.17
2017-12-28T02:56:53.337Z,926.18
2017-12-28T02:57:53.223Z,926.16
2017-12-28T02:58:53.206Z,926.18
2017-12-28T02:59:53.190Z,926.19
2017-12-28T03:00:53.174Z,926.15
2017-12-28T03:01:53.157Z,926.2
2017-12-28T03:02:53.140Z,926.16
2017-12-28T03:03:53.124Z,926.13
2017-12-28T03:04:53.108Z,926.12
2017-12-28T03:05:53.089Z,926.12
2017-12-28T03:06:53.073Z,926.16
2017-12-28T03:07:53.057Z,926.14
2017-12-28T03:08:53.044Z,926.16
2017-12-28T03:09:53.109Z,926.17
2017-12-28T03:10:53.006Z,926.16
2017-12-28T03:11:53.059Z,926.17
2017-12-28T03:12:52.974Z,926.14
2017-12-28T03:13:53.008Z,926.14
2017-12-28T03:14:52.940Z,926.09
2017-12-28T03:15:52.978Z,926.11
2017-12-28T03:16:52.913Z,926.11
2017-12-28T03:17:52.890Z,926.1
2017-12-28T03:18:52.920Z,926.09
2017-12-28T03:19:52.856Z,926.13
2017-12-28T03:20:52.843Z,926.16
2017-12-28T03:21:52.822Z,926.17
2017-12-28T03:22:52.805Z,926.19
2017-12-28T03:23:52.816Z,926.2
2017-12-28T03:24:52.773Z,926.22
2017-12-28T03:25:52.754Z,926.22
2017-12-28T03:26:52.741Z,926.3
2017-12-28T03:27:52.731Z,926.28
2017-12-28T03:28:52.704Z,926.24
2017-12-28T03:29:52.692Z,926.22
2017-12-28T03:30:52.725Z,926.18
2017-12-28T03:31:52.653Z,926.15
2017-12-28T03:32:52.637Z,926.2
2017-12-28T03:33:52.666Z,926.22
2017-12-28T03:34:52.606Z,926.25
2017-12-28T03:35:52.587Z,926.3
2017-12-28T03:36:52.624Z,926.31
2017-12-28T03:37:52.554Z,926.28
2017-12-28T03:38:52.592Z,926.29
2017-12-28T03:39:52.520Z,926.27
2017-12-28T03:40:52.564Z,926.34
2017-12-28T03:41:52.486Z,926.33
2017-12-28T03:42:52.504Z,926.32
2017-12-28T03:43:52.452Z,926.36
2017-12-28T03:44:52.548Z,926.31
2017-12-28T03:45:52.430Z,926.29
2017-12-28T03:46:52.475Z,926.3
2017-12-28T03:47:52.385Z,926.26
2017-12-28T03:48:52.402Z,926.27
2017-12-28T03:49:52.349Z,926.28
2017-12-28T03:50:52.334Z,926.32
2017-12-28T03:51:52.333Z,926.3
2017-12-28T03:52:52.300Z,926.33
2017-12-28T03:53:52.341Z,926.37
2017-12-28T03:54:52.267Z,926.4
2017-12-28T03:55:52.271Z,926.41
2017-12-28T03:56:52.234Z,926.42
2017-12-28T03:57:52.259Z,926.45
2017-12-28T03:58:52.199Z,926.47
2017-12-28T03:59:52.183Z,926.45
2017-12-28T04:00:52.189Z,926.5
2017-12-28T04:01:52.149Z,926.49
2017-12-28T04:02:52.263Z,926.51
2017-12-28T04:03:52.115Z,926.54
2017-12-28T04:04:52.098Z,926.54
2017-12-28T04:05:52.120Z,926.56
2017-12-28T04:06:52.064Z,926.56
2017-12-28T04:07:52.048Z,926.63
2017-12-28T04:08:52.033Z,926.63
2017-12-28T04:09:52.054Z,926.64
2017-12-28T04:10:51.997Z,926.66
2017-12-28T04:11:52.040Z,926.72
2017-12-28T04:12:51.963Z,926.67
2017-12-28T04:13:51.984Z,926.72
2017-12-28T04:14:51.930Z,926.77
2017-12-28T04:15:51.911Z,926.77
2017-12-28T04:16:51.900Z,926.78
2017-12-28T04:17:51.910Z,926.77
2017-12-28T04:18:51.861Z,926.75
2017-12-28T04:19:51.845Z,926.73
2017-12-28T04:20:51.851Z,926.75
2017-12-28T04:21:51.811Z,926.76
2017-12-28T04:22:51.822Z,926.74
2017-12-28T04:23:51.775Z,926.77
2017-12-28T04:24:51.808Z,926.82
2017-12-28T04:25:51.741Z,926.84
2017-12-28T04:26:51.827Z,926.86
2017-12-28T04:27:51.708Z,926.9
2017-12-28T04:28:51.734Z,926.83
2017-12-28T04:29:51.694Z,926.9
2017-12-28T04:30:51.659Z,926.91
2017-12-28T04:31:51.685Z,926.92
2017-12-28T04:32:51.625Z,926.96
2017-12-28T04:33:51.620Z,926.96
2017-12-28T04:34:51.593Z,926.94
2017-12-28T04:35:51.591Z,926.95
2017-12-28T04:36:51.598Z,927.01
2017-12-28T04:37:51.540Z,927.01
2017-12-28T04:38:51.625Z,926.95
2017-12-28T04:39:51.506Z,927.04
2017-12-28T04:40:51.542Z,927.07
2017-12-28T04:41:51.475Z,927.07
2017-12-28T04:42:51.508Z,927.1
2017-12-28T04:43:51.440Z,927.15
2017-12-28T04:44:51.521Z,927.15
2017-12-28T04:45:51.404Z,927.15
2017-12-28T04:46:51.386Z,927.15
2017-12-28T04:47:51.423Z,927.13
2017-12-28T04:48:51.353Z,927.15
2017-12-28T04:49:51.432Z,927.2
2017-12-28T04:50:51.319Z,927.18
2017-12-28T04:51:51.351Z,927.18
2017-12-28T04:52:51.285Z,927.2
2017-12-28T04:53:51.301Z,927.21
2017-12-28T04:54:51.253Z,927.21
2017-12-28T04:55:51.292Z,927.21
2017-12-28T04:56:51.218Z,927.28
2017-12-28T04:57:51.202Z,927.23
2017-12-28T04:58:51.190Z,927.22
2017-12-28T04:59:51.166Z,927.23
2017-12-28T05:00:51.180Z,927.18
2017-12-28T05:01:51.132Z,927.19
2017-12-28T05:02:51.115Z,927.18
2017-12-28T05:03:51.099Z,927.22
2017-12-28T05:04:51.082Z,927.17
2017-12-28T05:05:51.066Z,927.16
2017-12-28T05:06:51.046Z,927.19
2017-12-28T05:07:51.030Z,927.25
2017-12-28T05:08:51.012Z,927.19
2017-12-28T05:09:50.996Z,927.23
2017-12-28T05:10:50.978Z,927.21
2017-12-28T05:11:50.965Z,927.29
2017-12-28T05:12:50.945Z,927.3
2017-12-28T05:13:50.932Z,927.35
2017-12-28T05:14:50.910Z,927.31
2017-12-28T05:15:50.894Z,927.35
2017-12-28T05:16:50.880Z,927.35
2017-12-28T05:17:50.860Z,927.32
2017-12-28T05:18:50.841Z,927.3
2017-12-28T05:19:50.825Z,927.24
2017-12-28T05:20:50.808Z,927.31
2017-12-28T05:21:50.791Z,927.28
2017-12-28T05:22:50.795Z,927.31
2017-12-28T05:23:50.756Z,927.31
2017-12-28T05:24:50.739Z,927.3
2017-12-28T05:25:50.722Z,927.26
2017-12-28T05:26:50.704Z,927.27
2017-12-28T05:27:50.688Z,927.25
2017-12-28T05:28:50.669Z,927.24
2017-12-28T05:29:50.653Z,927.32
2017-12-28T05:30:50.637Z,927.33
2017-12-28T05:31:50.619Z,927.3
2017-12-28T05:32:50.601Z,927.35
2017-12-28T05:33:50.583Z,927.32
2017-12-28T05:34:50.566Z,927.32
2017-12-28T05:35:50.549Z,927.39
2017-12-28T05:36:50.531Z,927.38
2017-12-28T05:37:50.515Z,927.36
2017-12-28T05:38:50.499Z,927.42
2017-12-28T05:39:50.480Z,927.42
2017-12-28T05:40:50.464Z,927.41
2017-12-28T05:41:50.447Z,927.42
2017-12-28T05:42:50.430Z,927.44
2017-12-28T05:43:50.413Z,927.48
2017-12-28T05:44:50.395Z,927.46
2017-12-28T05:45:50.376Z,927.45
2017-12-28T05:46:50.359Z,927.5
2017-12-28T05:47:50.342Z,927.58
2017-12-28T05:48:50.327Z,927.53
2017-12-28T05:49:50.308Z,927.55
2017-12-28T05:50:50.290Z,927.52
2017-12-28T05:51:50.273Z,927.53
2017-12-28T05:52:50.256Z,927.57
2017-12-28T05:53:50.238Z,927.55
2017-12-28T05:54:50.221Z,927.58
2017-12-28T05:55:50.204Z,927.59
2017-12-28T05:56:50.187Z,927.61
2017-12-28T05:57:50.168Z,927.59
2017-12-28T05:58:50.152Z,927.65
2017-12-28T05:59:50.134Z,927.62
2017-12-28T06:00:50.120Z,927.65
2017-12-28T06:01:50.099Z,927.61
2017-12-28T06:02:50.083Z,927.65
2017-12-28T06:03:50.067Z,927.64
2017-12-28T06:04:50.048Z,927.65
2017-12-28T06:05:50.031Z,927.64
2017-12-28T06:06:50.015Z,927.63
2017-12-28T06:07:49.998Z,927.61
2017-12-28T06:08:50.030Z,927.68
2017-12-28T06:09:49.965Z,927.69
2017-12-28T06:10:49.959Z,927.7
2017-12-28T06:11:49.930Z,927.69
2017-12-28T06:12:49.910Z,927.68
2017-12-28T06:13:49.894Z,927.66
2017-12-28T06:14:49.877Z,927.66
2017-12-28T06:15:49.862Z,927.7
2017-12-28T06:16:49.842Z,927.7
2017-12-28T06:17:49.829Z,927.66
2017-12-28T06:18:49.808Z,927.67
2017-12-28T06:19:49.790Z,927.67
2017-12-28T06:20:49.773Z,927.63
2017-12-28T06:21:49.757Z,927.6
2017-12-28T06:22:49.738Z,927.62
2017-12-28T06:23:49.720Z,927.68
2017-12-28T06:24:49.704Z,927.68
2017-12-28T06:25:49.685Z,927.7
2017-12-28T06:26:49.669Z,927.71
2017-12-28T06:27:49.651Z,927.77
2017-12-28T06:28:49.634Z,927.68
2017-12-28T06:29:49.617Z,927.74
2017-12-28T06:30:49.602Z,927.71
2017-12-28T06:31:49.582Z,927.68
2017-12-28T06:32:49.565Z,927.65
2017-12-28T06:33:49.551Z,927.73
2017-12-28T06:34:49.531Z,927.74
2017-12-28T06:35:49.513Z,927.71
2017-12-28T06:36:49.495Z,927.82
2017-12-28T06:37:49.495Z,927.8
2017-12-28T06:38:49.461Z,927.86
2017-12-28T06:39:49.444Z,927.89
2017-12-28T06:40:49.426Z,927.89
2017-12-28T06:41:49.407Z,927.93
2017-12-28T06:42:49.392Z,927.91
2017-12-28T06:43:49.373Z,927.96
2017-12-28T06:44:49.358Z,927.95
2017-12-28T06:45:49.340Z,928.01
2017-12-28T06:46:49.322Z,928.05
2017-12-28T06:47:49.305Z,928.05
2017-12-28T06:48:49.285Z,928.04
2017-12-28T06:49:49.270Z,928.06
2017-12-28T06:50:49.253Z,928.09
2017-12-28T06:51:49.236Z,928.1
2017-12-28T06:52:49.217Z,928.11
2017-12-28T06:53:49.201Z,928.11
2017-12-28T06:54:49.181Z,928.07
2017-12-28T06:55:49.166Z,928.12
2017-12-28T06:56:49.150Z,928.08
2017-12-28T06:57:49.132Z,928.11
2017-12-28T06:58:49.114Z,928.13
2017-12-28T06:59:49.096Z,928.1
2017-12-28T07:00:49.079Z,928.09
2017-12-28T07:01:49.062Z,928.1
2017-12-28T07:02:49.045Z,928.11
2017-12-28T07:03:49.026Z,928.14
2017-12-28T07:04:49.009Z,928.15
2017-12-28T07:05:48.992Z,928.17
2017-12-28T07:06:48.975Z,928.22
2017-12-28T07:07:48.958Z,928.23
2017-12-28T07:08:48.948Z,928.3
2017-12-28T07:09:48.922Z,928.3
2017-12-28T07:10:48.905Z,928.3
2017-12-28T07:11:48.888Z,928.35
2017-12-28T07:12:48.871Z,928.34
2017-12-28T07:13:48.852Z,928.34
2017-12-28T07:14:48.836Z,928.39
2017-12-28T07:15:48.818Z,928.4
2017-12-28T07:16:48.822Z,928.45
2017-12-28T07:17:48.783Z,928.44
2017-12-28T07:18:48.765Z,928.47
2017-12-28T07:19:48.748Z,928.44
2017-12-28T07:20:48.732Z,928.51
2017-12-28T07:21:48.712Z,928.53
2017-12-28T07:22:48.696Z,928.58
2017-12-28T07:23:48.679Z,928.62
2017-12-28T07:24:48.662Z,928.61
2017-12-28T07:25:48.643Z,928.63
2017-12-28T07:26:48.626Z,928.62
2017-12-28T07:27:48.609Z,928.6
2017-12-28T07:28:48.593Z,928.66
2017-12-28T07:29:48.574Z,928.65
2017-12-28T07:30:48.556Z,928.65
2017-12-28T07:31:48.541Z,928.68
2017-12-28T07:32:48.521Z,928.67
2017-12-28T07:33:48.515Z,928.69
2017-12-28T07:34:48.488Z,928.65
2017-12-28T07:35:48.469Z,928.74
2017-12-28T07:36:48.451Z,928.71
2017-12-28T07:37:48.436Z,928.75
2017-12-28T07:38:48.432Z,928.77
2017-12-28T07:39:48.401Z,928.77
2017-12-28T07:40:48.383Z,928.74
2017-12-28T07:41:48.367Z,928.74
2017-12-28T07:42:48.354Z,928.76
2017-12-28T07:43:48.333Z,928.77
2017-12-28T07:44:48.313Z,928.77
2017-12-28T07:45:48.297Z,928.82
2017-12-28T07:46:48.279Z,928.85
2017-12-28T07:47:48.261Z,928.88
2017-12-28T07:48:48.244Z,928.91
2017-12-28T07:49:48.229Z,928.91
2017-12-28T07:50:48.209Z,928.92
2017-12-28T07:51:48.215Z,928.91
2017-12-28T07:52:48.174Z,928.94
2017-12-28T07:53:48.158Z,928.96
2017-12-28T07:54:48.140Z,928.92
2017-12-28T07:55:48.121Z,928.95
2017-12-28T07:56:48.105Z,928.95
2017-12-28T07:57:48.088Z,928.97
2017-12-28T07:58:48.069Z,928.97
2017-12-28T07:59:48.051Z,928.98
2017-12-28T08:00:48.038Z,928.96
2017-12-28T08:01:48.016Z,928.95
2017-12-28T08:02:47.999Z,928.94
2017-12-28T08:03:47.992Z,929
2017-12-28T08:04:47.966Z,928.98
2017-12-28T08:05:47.947Z,929.04
2017-12-28T08:06:47.930Z,929.01
2017-12-28T08:07:47.913Z,929.07
2017-12-28T08:08:47.908Z,929.06
2017-12-28T08:09:47.877Z,929.1
2017-12-28T08:10:47.861Z,929.14
2017-12-28T08:11:47.843Z,929.2
2017-12-28T08:12:47.824Z,929.21
2017-12-28T08:13:47.807Z,929.24
2017-12-28T08:14:47.791Z,929.21
2017-12-28T08:15:47.773Z,929.28
2017-12-28T08:16:47.755Z,929.36
2017-12-28T08:17:47.737Z,929.34
2017-12-28T08:18:47.720Z,929.37
2017-12-28T08:19:47.769Z,929.41
2017-12-28T08:20:47.685Z,929.4
2017-12-28T08:21:47.680Z,929.39
2017-12-28T08:22:47.650Z,929.38
2017-12-28T08:23:47.631Z,929.41
2017-12-28T08:24:47.614Z,929.37
2017-12-28T08:25:47.601Z,929.4
2017-12-28T08:26:47.579Z,929.44
2017-12-28T08:27:47.561Z,929.42
2017-12-28T08:28:47.545Z,929.43
2017-12-28T08:29:47.527Z,929.48
2017-12-28T08:30:47.519Z,929.51
2017-12-28T08:31:47.492Z,929.49
2017-12-28T08:32:47.474Z,929.55
2017-12-28T08:33:47.459Z,929.59
2017-12-28T08:34:47.440Z,929.58
2017-12-28T08:35:47.422Z,929.61
2017-12-28T08:36:47.406Z,929.68
2017-12-28T08:37:47.388Z,929.67
2017-12-28T08:38:47.371Z,929.69
2017-12-28T08:39:47.352Z,929.76
2017-12-28T08:40:47.334Z,929.75
2017-12-28T08:41:47.316Z,929.75
2017-12-28T08:42:47.300Z,929.79
2017-12-28T08:43:47.298Z,929.82
2017-12-28T08:44:47.265Z,929.85
2017-12-28T08:45:47.246Z,929.88
2017-12-28T08:46:47.249Z,929.93
2017-12-28T08:47:47.211Z,929.92
2017-12-28T08:48:47.194Z,929.95
2017-12-28T08:49:47.177Z,929.93
2017-12-28T08:50:47.165Z,929.96
2017-12-28T08:51:47.141Z,930.01
2017-12-28T08:52:47.124Z,930.01
2017-12-28T08:53:47.106Z,930.01
2017-12-28T08:54:47.088Z,930.07
2017-12-28T08:55:47.119Z,930.08
2017-12-28T08:56:47.053Z,930.13
2017-12-28T08:57:47.036Z,930.12
2017-12-28T08:58:47.018Z,930.14
2017-12-28T08:59:47.001Z,930.15
2017-12-28T09:00:46.992Z,930.2
2017-12-28T09:01:46.964Z,930.28
2017-12-28T09:02:46.946Z,930.27
2017-12-28T09:03:46.930Z,930.28
2017-12-28T09:04:46.911Z,930.33
2017-12-28T09:05:46.893Z,930.37
2017-12-28T09:06:46.878Z,930.37
2017-12-28T09:07:46.858Z,930.4
2017-12-28T09:08:46.840Z,930.4
2017-12-28T09:09:46.822Z,930.4
2017-12-28T09:10:46.805Z,930.45
2017-12-28T09:11:46.787Z,930.46
2017-12-28T09:12:46.770Z,930.47
2017-12-28T09:13:46.765Z,930.54
2017-12-28T09:14:46.735Z,930.55
2017-12-28T09:15:46.717Z,930.62
2017-12-28T09:16:46.701Z,930.65
2017-12-28T09:17:46.684Z,930.63
2017-12-28T09:18:46.665Z,930.61
2017-12-28T09:19:46.666Z,930.56
2017-12-28T09:20:46.636Z,930.69
2017-12-28T09:21:46.613Z,930.61
2017-12-28T09:22:46.603Z,930.66
2017-12-28T09:23:46.576Z,930.66
2017-12-28T09:24:46.560Z,930.67
2017-12-28T09:25:46.542Z,930.67
2017-12-28T09:26:46.524Z,930.7
2017-12-28T09:27:46.506Z,930.69
2017-12-28T09:28:46.489Z,930.7
2017-12-28T09:29:46.471Z,930.67
2017-12-28T09:30:46.465Z,930.71
2017-12-28T09:31:46.435Z,930.74
2017-12-28T09:32:46.423Z,930.76
2017-12-28T09:33:46.400Z,930.79
2017-12-28T09:34:46.381Z,930.79
2017-12-28T09:35:46.364Z,930.79
2017-12-28T09:36:46.347Z,930.86
2017-12-28T09:37:46.398Z,930.95
2017-12-28T09:38:46.330Z,930.89
2017-12-28T09:39:46.297Z,930.94
2017-12-28T09:40:46.276Z,930.97
2017-12-28T09:41:46.263Z,931
2017-12-28T09:42:46.257Z,931.01
2017-12-28T09:43:46.223Z,931.04
2017-12-28T09:44:46.223Z,931.02
2017-12-28T09:45:46.187Z,931.04
2017-12-28T09:46:46.170Z,931.07
2017-12-28T09:47:46.151Z,931.03
2017-12-28T09:48:46.134Z,931.05
2017-12-28T09:49:46.116Z,931.05
2017-12-28T09:50:46.098Z,931.04
2017-12-28T09:51:46.080Z,931.05
2017-12-28T09:52:46.070Z,931.05
2017-12-28T09:53:46.047Z,931.09
2017-12-28T09:54:46.028Z,931.09
2017-12-28T09:55:46.010Z,931.13
2017-12-28T09:56:45.992Z,931.15
2017-12-28T09:57:45.976Z,931.12
2017-12-28T09:58:45.957Z,931.06
2017-12-28T09:59:45.938Z,931.16
2017-12-28T10:00:45.921Z,931.19
2017-12-28T10:01:45.906Z,931.2
2017-12-28T10:02:45.886Z,931.2
2017-12-28T10:03:45.872Z,931.17
2017-12-28T10:04:45.851Z,931.21
2017-12-28T10:05:45.833Z,931.26
2017-12-28T10:06:45.814Z,931.22
2017-12-28T10:07:45.797Z,931.28
2017-12-28T10:08:45.789Z,931.23
2017-12-28T10:09:45.762Z,931.32
2017-12-28T10:10:45.746Z,931.29
2017-12-28T10:11:45.727Z,931.26
2017-12-28T10:12:45.710Z,931.3
2017-12-28T10:13:45.692Z,931.28
2017-12-28T10:14:45.673Z,931.25
2017-12-28T10:15:45.656Z,931.29
2017-12-28T10:16:45.639Z,931.29
2017-12-28T10:17:45.619Z,931.28
2017-12-28T10:18:45.601Z,931.28
2017-12-28T10:19:45.587Z,931.33
2017-12-28T10:20:45.567Z,931.35
2017-12-28T10:21:45.551Z,931.38
2017-12-28T10:22:45.540Z,931.41
2017-12-28T10:23:45.525Z,931.47
2017-12-28T10:24:45.496Z,931.51
2017-12-28T10:25:45.492Z,931.47
2017-12-28T10:26:45.462Z,931.46
2017-12-28T10:27:45.444Z,931.44
2017-12-28T10:28:45.425Z,931.5
2017-12-28T10:29:45.410Z,931.57
2017-12-28T10:30:45.390Z,931.55
2017-12-28T10:31:45.373Z,931.6
2017-12-28T10:32:45.355Z,931.6
2017-12-28T10:33:45.337Z,931.63
2017-12-28T10:34:45.321Z,931.66
2017-12-28T10:35:45.323Z,931.61
2017-12-28T10:36:45.373Z,931.59
2017-12-28T10:37:45.276Z,931.6
2017-12-28T10:38:45.258Z,931.6
2017-12-28T10:39:45.232Z,931.64
2017-12-28T10:40:45.214Z,931.66
2017-12-28T10:41:45.196Z,931.65
2017-12-28T10:42:45.180Z,931.65
2017-12-28T10:43:45.161Z,931.67
2017-12-28T10:44:45.145Z,931.68
2017-12-28T10:45:45.134Z,931.64
2017-12-28T10:46:45.113Z,931.71
2017-12-28T10:47:45.144Z,931.7
2017-12-28T10:48:45.092Z,931.72
2017-12-28T10:49:45.058Z,931.7
2017-12-28T10:50:45.041Z,931.7
2017-12-28T10:51:45.024Z,931.76
2017-12-28T10:52:45.012Z,931.77
2017-12-28T10:53:44.987Z,931.77
2017-12-28T10:54:44.986Z,931.77
2017-12-28T10:55:44.954Z,931.82
2017-12-28T10:56:44.939Z,931.81
2017-12-28T10:57:44.939Z,931.77
2017-12-28T10:58:44.904Z,931.82
2017-12-28T10:59:44.885Z,931.87
2017-12-28T11:00:44.868Z,931.89
2017-12-28T11:01:44.851Z,931.86
2017-12-28T11:02:44.836Z,931.89
2017-12-28T11:03:44.818Z,931.87
2017-12-28T11:04:44.799Z,931.88
2017-12-28T11:05:44.782Z,931.9
2017-12-28T11:06:44.765Z,931.89
2017-12-28T11:07:44.747Z,931.96
2017-12-28T11:08:44.730Z,931.91
2017-12-28T11:09:44.735Z,931.95
2017-12-28T11:10:44.737Z,931.98
2017-12-28T11:11:44.752Z,931.99
2017-12-28T11:12:44.671Z,931.99
2017-12-28T11:13:44.665Z,932
2017-12-28T11:14:44.662Z,932.02
2017-12-28T11:15:44.645Z,931.98
2017-12-28T11:16:44.662Z,932.03
2017-12-28T11:17:44.575Z,932.04
2017-12-28T11:18:44.559Z,932.03
2017-12-28T11:19:44.542Z,932.06
2017-12-28T11:20:44.525Z,932.09
2017-12-28T11:21:44.508Z,932.15
2017-12-28T11:22:44.490Z,932.19
2017-12-28T11:23:44.472Z,932.19
2017-12-28T11:24:44.456Z,932.21
2017-12-28T11:25:44.440Z,932.22
2017-12-28T11:26:44.422Z,932.18
2017-12-28T11:27:44.404Z,932.19
2017-12-28T11:28:44.408Z,932.21
2017-12-28T11:29:44.370Z,932.25
2017-12-28T11:30:44.353Z,932.25
2017-12-28T11:31:44.353Z,932.29
2017-12-28T11:32:44.329Z,932.3
2017-12-28T11:33:44.306Z,932.34
2017-12-28T11:34:44.286Z,932.34
2017-12-28T11:35:44.268Z,932.32
2017-12-28T11:36:44.253Z,932.32
2017-12-28T11:37:44.256Z,932.31
2017-12-28T11:38:44.218Z,932.34
2017-12-28T11:39:44.201Z,932.33
2017-12-28T11:40:44.183Z,932.34
2017-12-28T11:41:44.166Z,932.29
2017-12-28T11:42:44.149Z,932.33
2017-12-28T11:43:44.133Z,932.38
2017-12-28T11:44:44.115Z,932.39
2017-12-28T11:45:44.101Z,932.39
2017-12-28T11:46:44.082Z,932.44
2017-12-28T11:47:44.066Z,932.47
2017-12-28T11:48:44.049Z,932.43
2017-12-28T11:49:44.032Z,932.43
2017-12-28T11:50:44.023Z,932.42
2017-12-28T11:51:43.998Z,932.44
2017-12-28T11:52:43.981Z,932.48
2017-12-28T11:53:43.964Z,932.49
2017-12-28T11:54:43.948Z,932.55
2017-12-28T11:55:43.949Z,932.53
2017-12-28T11:56:43.913Z,932.58
2017-12-28T11:57:43.928Z,932.57
2017-12-28T11:58:43.882Z,932.57
2017-12-28T11:59:43.862Z,932.58
2017-12-28T12:00:43.847Z,932.58
2017-12-28T12:01:43.830Z,932.62
2017-12-28T12:02:43.816Z,932.58
2017-12-28T12:03:43.799Z,932.59
2017-12-28T12:04:43.779Z,932.6
2017-12-28T12:05:43.762Z,932.67
2017-12-28T12:06:43.749Z,932.7
2017-12-28T12:07:43.728Z,932.75
2017-12-28T12:08:43.717Z,932.78
2017-12-28T12:09:43.695Z,932.81
2017-12-28T12:10:43.677Z,932.84
2017-12-28T12:11:43.659Z,932.78
2017-12-28T12:12:43.643Z,932.81
2017-12-28T12:13:43.627Z,932.82
2017-12-28T12:14:43.608Z,932.84
2017-12-28T12:15:43.592Z,932.85
2017-12-28T12:16:43.576Z,932.87
2017-12-28T12:17:43.566Z,932.89
2017-12-28T12:18:43.542Z,932.9
2017-12-28T12:19:43.524Z,932.92
2017-12-28T12:20:43.507Z,932.98
2017-12-28T12:21:43.489Z,932.97
2017-12-28T12:22:43.494Z,933.01
2017-12-28T12:23:43.457Z,932.98
2017-12-28T12:24:43.441Z,933.06
2017-12-28T12:25:43.424Z,933.03
2017-12-28T12:26:43.407Z,933.06
2017-12-28T12:27:43.410Z,933.04
2017-12-28T12:28:43.371Z,933.07
2017-12-28T12:29:43.354Z,933.09
2017-12-28T12:30:43.342Z,933.07
2017-12-28T12:31:43.322Z,933.08